Time,TemperatureF,DewpointF,PressureIn,WindDirection,WindDirectionDegrees,WindSpeedMPH,WindSpeedGustMPH,Humidity,HourlyPrecipIn,Conditions,Clouds,dailyrainin,SoftwareType,DateUTC
2013-06-03 00:01:00,68.3,60.0,29.93,East,95,0.0,2.0,75,0.00,,,0.00,weatherlink.com 1.10,2013-06-03 05:01:00,
2013-06-03 00:16:00,67.6,60.0,29.93,East,95,1.0,1.0,76,0.00,,,0.00,weatherlink.com 1.10,2013-06-03 05:16:00,
2013-06-03 00:31:00,67.5,60.0,29.93,East,95,0.0,0.0,77,0.00,,,0.00,weatherlink.com 1.10,2013-06-03 05:31:00,
2013-06-03 00:46:00,67.0,60.0,29.93,East,95,0.0,0.0,78,0.00,,,0.00,weatherlink.com 1.10,2013-06-03 05:46:00,
2013-06-03 01:01:00,66.7,60.0,29.94,East,95,0.0,0.0,78,0.00,,,0.00,weatherlink.com 1.10,2013-06-03 06:01:00,
2013-06-03 01:16:00,66.3,60.0,29.94,East,95,0.0,0.0,80,0.00,,,0.00,weatherlink.com 1.10,2013-06-03 06:16:00,
2013-06-03 01:31:00,65.6,60.0,29.93,East,95,0.0,0.0,81,0.00,,,0.00,weatherlink.com 1.10,2013-06-03 06:31:00,
2013-06-03 02:01:00,64.7,59.0,29.93,East,95,0.0,0.0,82,0.00,,,0.00,weatherlink.com 1.10,2013-06-03 07:01:00,
2013-06-03 02:31:00,63.8,59.0,29.94,East,95,0.0,0.0,84,0.00,,,0.00,weatherlink.com 1.10,2013-06-03 07:31:00,
2013-06-03 02:46:00,63.5,59.0,29.94,East,95,0.0,0.0,85,0.00,,,0.00,weatherlink.com 1.10,2013-06-03 07:46:00,
2013-06-03 03:01:00,63.7,60.0,29.94,East,95,1.0,3.0,86,0.00,,,0.00,weatherlink.com 1.10,2013-06-03 08:01:00,
2013-06-03 03:16:00,63.5,59.0,29.94,East,95,0.0,3.0,86,0.00,,,0.00,weatherlink.com 1.10,2013-06-03 08:16:00,
2013-06-03 03:31:00,63.2,59.0,29.95,East,95,1.0,3.0,87,0.00,,,0.00,weatherlink.com 1.10,2013-06-03 08:31:00,
2013-06-03 03:46:00,63.2,59.0,29.95,SSE,160,1.0,4.0,87,0.00,,,0.00,weatherlink.com 1.10,2013-06-03 08:46:00,
2013-06-03 04:01:00,62.9,59.0,29.95,SSE,163,1.0,3.0,87,0.00,,,0.00,weatherlink.com 1.10,2013-06-03 09:01:00,
2013-06-03 04:16:00,62.4,59.0,29.95,SSE,163,0.0,2.0,88,0.00,,,0.00,weatherlink.com 1.10,2013-06-03 09:16:00,
2013-06-03 04:32:00,61.0,58.0,29.94,SSE,163,0.0,1.0,89,0.00,,,0.00,weatherlink.com 1.10,2013-06-03 09:32:00,
2013-06-03 04:47:00,60.2,57.0,29.95,SSE,163,0.0,0.0,90,0.00,,,0.00,weatherlink.com 1.10,2013-06-03 09:47:00,
2013-06-03 05:02:00,60.2,58.0,29.95,SSE,162,1.0,4.0,91,0.00,,,0.00,weatherlink.com 1.10,2013-06-03 10:02:00,
2013-06-03 05:17:00,60.4,58.0,29.95,SSE,168,3.0,4.0,91,0.00,,,0.00,weatherlink.com 1.10,2013-06-03 10:17:00,
2013-06-03 05:32:00,60.6,58.0,29.95,SW,220,3.0,5.0,90,0.00,,,0.00,weatherlink.com 1.10,2013-06-03 10:32:00,
2013-06-03 05:47:00,60.4,58.0,29.96,SW,220,0.0,2.0,90,0.00,,,0.00,weatherlink.com 1.10,2013-06-03 10:47:00,
2013-06-03 06:02:00,60.1,57.0,29.96,SW,224,1.0,3.0,90,0.00,,,0.00,weatherlink.com 1.10,2013-06-03 11:02:00,
2013-06-03 06:17:00,60.4,58.0,29.97,WSW,244,2.0,6.0,90,0.00,,,0.00,weatherlink.com 1.10,2013-06-03 11:17:00,
2013-06-03 06:32:00,60.0,57.0,29.97,WSW,244,1.0,3.0,89,0.00,,,0.00,weatherlink.com 1.10,2013-06-03 11:32:00,
2013-06-03 06:47:00,59.8,57.0,29.97,WSW,244,0.0,3.0,91,0.00,,,0.00,weatherlink.com 1.10,2013-06-03 11:47:00,
2013-06-03 07:02:00,59.9,57.0,29.97,WSW,244,0.0,1.0,91,0.00,,,0.00,weatherlink.com 1.10,2013-06-03 12:02:00,
2013-06-03 07:17:00,61.0,58.0,29.97,WSW,244,0.0,1.0,91,0.00,,,0.00,weatherlink.com 1.10,2013-06-03 12:17:00,
2013-06-03 07:32:00,62.1,59.0,29.96,WSW,244,0.0,0.0,89,0.00,,,0.00,weatherlink.com 1.10,2013-06-03 12:32:00,
2013-06-03 07:47:00,63.5,60.0,29.96,WSW,244,2.0,2.0,88,0.00,,,0.00,weatherlink.com 1.10,2013-06-03 12:47:00,
2013-06-03 08:02:00,64.6,60.0,29.96,WSW,244,0.0,2.0,85,0.00,,,0.00,weatherlink.com 1.10,2013-06-03 13:02:00,
2013-06-03 08:17:00,66.9,61.0,29.96,WSW,243,2.0,4.0,82,0.00,,,0.00,weatherlink.com 1.10,2013-06-03 13:17:00,
2013-06-03 08:32:00,68.4,61.0,29.95,South,174,5.0,6.0,76,0.00,,,0.00,weatherlink.com 1.10,2013-06-03 13:32:00,
2013-06-03 08:47:00,70.4,61.0,29.95,SSE,158,1.0,6.0,72,0.00,,,0.00,weatherlink.com 1.10,2013-06-03 13:47:00,
2013-06-03 09:02:00,72.1,61.0,29.96,SSE,155,4.0,7.0,68,0.00,,,0.00,weatherlink.com 1.10,2013-06-03 14:02:00,
2013-06-03 09:17:00,73.5,60.0,29.96,SSE,149,8.0,8.0,63,0.00,,,0.00,weatherlink.com 1.10,2013-06-03 14:17:00,
2013-06-03 09:32:00,75.2,62.0,29.95,SE,136,5.0,11.0,63,0.00,,,0.00,weatherlink.com 1.10,2013-06-03 14:32:00,
2013-06-03 09:47:00,76.3,60.0,29.95,SSE,147,7.0,11.0,58,0.00,,,0.00,weatherlink.com 1.10,2013-06-03 14:47:00,
2013-06-03 10:02:00,77.3,61.0,29.95,ESE,110,8.0,9.0,58,0.00,,,0.00,weatherlink.com 1.10,2013-06-03 15:02:00,
2013-06-03 10:17:00,78.1,62.0,29.95,SSE,147,5.0,9.0,58,0.00,,,0.00,weatherlink.com 1.10,2013-06-03 15:17:00,
2013-06-03 10:32:00,79.6,62.0,29.95,SSE,164,1.0,10.0,56,0.00,,,0.00,weatherlink.com 1.10,2013-06-03 15:32:00,
2013-06-03 10:47:00,78.3,63.0,29.95,South,189,3.0,9.0,60,0.00,,,0.00,weatherlink.com 1.10,2013-06-03 15:47:00,
2013-06-03 11:02:00,79.9,64.0,29.95,SE,142,4.0,7.0,59,0.00,,,0.00,weatherlink.com 1.10,2013-06-03 16:02:00,
2013-06-03 11:17:00,80.8,65.0,29.95,SSE,168,1.0,5.0,58,0.00,,,0.00,weatherlink.com 1.10,2013-06-03 16:17:00,
2013-06-03 11:32:00,82.4,65.0,29.95,SSW,204,6.0,8.0,55,0.00,,,0.00,weatherlink.com 1.10,2013-06-03 16:32:00,
2013-06-03 11:48:00,83.2,63.0,29.94,SSE,168,1.0,11.0,51,0.00,,,0.00,weatherlink.com 1.10,2013-06-03 16:48:00,
2013-06-03 12:03:00,83.9,64.0,29.93,SSE,147,5.0,11.0,51,0.00,,,0.00,weatherlink.com 1.10,2013-06-03 17:03:00,
2013-06-03 12:18:00,83.8,65.0,29.91,SSE,155,1.0,13.0,53,0.00,,,0.00,weatherlink.com 1.10,2013-06-03 17:18:00,
2013-06-03 12:33:00,85.1,65.0,29.91,ESE,111,7.0,11.0,52,0.00,,,0.00,weatherlink.com 1.10,2013-06-03 17:33:00,
2013-06-03 12:48:00,86.1,64.0,29.91,SSE,166,6.0,13.0,47,0.00,,,0.00,weatherlink.com 1.10,2013-06-03 17:48:00,
2013-06-03 13:03:00,86.3,63.0,29.90,SSE,165,8.0,10.0,45,0.00,,,0.00,weatherlink.com 1.10,2013-06-03 18:03:00,
2013-06-03 13:18:00,87.2,65.0,29.89,SSE,159,8.0,12.0,47,0.00,,,0.00,weatherlink.com 1.10,2013-06-03 18:18:00,
2013-06-03 13:33:00,88.2,62.0,29.89,SSE,155,3.0,9.0,41,0.00,,,0.00,weatherlink.com 1.10,2013-06-03 18:33:00,
2013-06-03 13:48:00,88.1,64.0,29.88,South,171,3.0,9.0,45,0.00,,,0.00,weatherlink.com 1.10,2013-06-03 18:48:00,
2013-06-03 14:03:00,89.1,65.0,29.87,SSE,147,3.0,11.0,45,0.00,,,0.00,weatherlink.com 1.10,2013-06-03 19:03:00,
2013-06-03 14:18:00,89.0,64.0,29.86,ESE,116,3.0,9.0,44,0.00,,,0.00,weatherlink.com 1.10,2013-06-03 19:18:00,
2013-06-03 14:33:00,89.6,64.0,29.85,SE,131,5.0,12.0,42,0.00,,,0.00,weatherlink.com 1.10,2013-06-03 19:33:00,
2013-06-03 14:48:00,90.7,62.0,29.84,SSE,168,5.0,12.0,38,0.00,,,0.00,weatherlink.com 1.10,2013-06-03 19:48:00,
2013-06-03 15:03:00,91.0,63.0,29.84,SSW,201,5.0,10.0,39,0.00,,,0.00,weatherlink.com 1.10,2013-06-03 20:03:00,
2013-06-03 15:18:00,91.5,61.0,29.84,SSE,160,2.0,12.0,36,0.00,,,0.00,weatherlink.com 1.10,2013-06-03 20:18:00,
2013-06-03 15:33:00,92.1,62.0,29.84,SE,126,7.0,12.0,36,0.00,,,0.00,weatherlink.com 1.10,2013-06-03 20:33:00,
2013-06-03 15:48:00,91.7,62.0,29.83,SSE,162,7.0,12.0,37,0.00,,,0.00,weatherlink.com 1.10,2013-06-03 20:48:00,
2013-06-03 16:03:00,91.9,61.0,29.82,SE,133,11.0,12.0,35,0.00,,,0.00,weatherlink.com 1.10,2013-06-03 21:03:00,
2013-06-03 16:18:00,92.1,62.0,29.82,SSE,162,6.0,12.0,37,0.00,,,0.00,weatherlink.com 1.10,2013-06-03 21:18:00,
2013-06-03 16:33:00,91.9,63.0,29.82,SSW,197,5.0,9.0,38,0.00,,,0.00,weatherlink.com 1.10,2013-06-03 21:33:00,
2013-06-03 16:48:00,92.1,62.0,29.81,SSE,157,2.0,9.0,37,0.00,,,0.00,weatherlink.com 1.10,2013-06-03 21:48:00,
2013-06-03 17:03:00,92.5,61.0,29.81,South,191,5.0,9.0,35,0.00,,,0.00,weatherlink.com 1.10,2013-06-03 22:03:00,
2013-06-03 17:18:00,92.1,59.0,29.81,SE,129,7.0,10.0,33,0.00,,,0.00,weatherlink.com 1.10,2013-06-03 22:18:00,
2013-06-03 17:33:00,92.0,61.0,29.80,South,187,3.0,9.0,36,0.00,,,0.00,weatherlink.com 1.10,2013-06-03 22:33:00,
2013-06-03 17:48:00,92.0,60.0,29.80,SSW,194,0.0,10.0,34,0.00,,,0.00,weatherlink.com 1.10,2013-06-03 22:48:00,
2013-06-03 18:03:00,91.7,59.0,29.80,South,183,3.0,9.0,33,0.00,,,0.00,weatherlink.com 1.10,2013-06-03 23:03:00,
2013-06-03 18:18:00,91.3,62.0,29.80,South,174,2.0,7.0,37,0.00,,,0.00,weatherlink.com 1.10,2013-06-03 23:18:00,
2013-06-03 18:33:00,90.8,61.0,29.79,South,169,4.0,10.0,37,0.00,,,0.00,weatherlink.com 1.10,2013-06-03 23:33:00,
2013-06-03 18:48:00,90.4,61.0,29.79,SSW,199,6.0,8.0,38,0.00,,,0.00,weatherlink.com 1.10,2013-06-03 23:48:00,
2013-06-03 19:03:00,89.9,60.0,29.79,SE,144,2.0,10.0,37,0.00,,,0.00,weatherlink.com 1.10,2013-06-04 00:03:00,
2013-06-03 19:18:00,89.3,60.0,29.80,SE,129,9.0,11.0,37,0.00,,,0.00,weatherlink.com 1.10,2013-06-04 00:18:00,
2013-06-03 19:33:00,88.4,60.0,29.80,SE,140,8.0,8.0,38,0.00,,,0.00,weatherlink.com 1.10,2013-06-04 00:33:00,
2013-06-03 19:48:00,87.5,60.0,29.80,SE,141,3.0,8.0,40,0.00,,,0.00,weatherlink.com 1.10,2013-06-04 00:48:00,
2013-06-03 20:03:00,86.4,60.0,29.81,SSE,148,2.0,4.0,41,0.00,,,0.00,weatherlink.com 1.10,2013-06-04 01:03:00,
2013-06-03 20:19:00,84.8,60.0,29.81,SE,140,3.0,5.0,43,0.00,,,0.00,weatherlink.com 1.10,2013-06-04 01:19:00,
2013-06-03 20:34:00,83.5,60.0,29.81,SE,143,3.0,4.0,45,0.00,,,0.00,weatherlink.com 1.10,2013-06-04 01:34:00,
2013-06-03 20:49:00,82.3,62.0,29.81,ESE,121,8.0,8.0,50,0.00,,,0.00,weatherlink.com 1.10,2013-06-04 01:49:00,
2013-06-03 21:04:00,81.9,64.0,29.81,SE,139,7.0,9.0,54,0.00,,,0.00,weatherlink.com 1.10,2013-06-04 02:04:00,
2013-06-03 21:19:00,81.4,64.0,29.82,SE,137,5.0,9.0,55,0.00,,,0.00,weatherlink.com 1.10,2013-06-04 02:19:00,
2013-06-03 21:34:00,80.3,64.0,29.82,SE,143,2.0,7.0,57,0.00,,,0.00,weatherlink.com 1.10,2013-06-04 02:34:00,
2013-06-03 21:49:00,79.4,64.0,29.82,SE,145,4.0,6.0,59,0.00,,,0.00,weatherlink.com 1.10,2013-06-04 02:49:00,
2013-06-03 22:04:00,78.9,64.0,29.83,SE,144,3.0,8.0,60,0.00,,,0.00,weatherlink.com 1.10,2013-06-04 03:04:00,
2013-06-03 22:19:00,78.9,64.0,29.83,SE,138,7.0,9.0,61,0.00,,,0.00,weatherlink.com 1.10,2013-06-04 03:19:00,
2013-06-03 22:34:00,78.9,65.0,29.83,SE,131,7.0,11.0,63,0.00,,,0.00,weatherlink.com 1.10,2013-06-04 03:34:00,
2013-06-03 22:49:00,78.3,66.0,29.83,SE,143,5.0,9.0,65,0.00,,,0.00,weatherlink.com 1.10,2013-06-04 03:49:00,
2013-06-03 23:04:00,77.8,66.0,29.83,ESE,120,6.0,9.0,66,0.00,,,0.00,weatherlink.com 1.10,2013-06-04 04:04:00,
2013-06-03 23:19:00,77.3,66.0,29.83,SE,143,3.0,7.0,68,0.00,,,0.00,weatherlink.com 1.10,2013-06-04 04:19:00,
2013-06-03 23:34:00,76.3,66.0,29.83,SSE,149,2.0,7.0,70,0.00,,,0.00,weatherlink.com 1.10,2013-06-04 04:34:00,
2013-06-03 23:49:00,74.9,66.0,29.83,SSE,149,2.0,3.0,73,0.00,,,0.00,weatherlink.com 1.10,2013-06-04 04:49:00,